Time;durP1;ratioP1;P1;durP2;ratioP2;P2;SDS_P1;SDS_P2;PMS_P1;PMS_P2;Temp;Humidity;BMP_temperature;BMP_pressure;BME280_temperature;BME280_humidity;BME280_pressure;Samples;Min_cycle;Max_cycle;Signal;HPM_P1;HPM_P2
2021/12/14 00:01:20;;;;;;;9.35;5.50;;;11.10;79.20;;;;;;5017176;28;20033;-70
2021/12/14 00:03:49;;;;;;;10.80;5.85;;;11.20;79.30;;;;;;5003924;28;20037;-70
2021/12/14 00:06:18;;;;;;;10.60;6.18;;;11.20;79.30;;;;;;5032730;28;20037;-70
2021/12/14 00:08:57;;;;;;;10.52;6.00;;;11.20;79.40;;;;;;5031960;28;20439;-70
2021/12/14 00:16:51;;;;;;;10.18;6.45;;;11.10;79.40;;;;;;5029173;28;20140;-70
2021/12/14 00:19:18;;;;;;;11.95;6.45;;;11.10;79.40;;;;;;5013399;28;20029;-70
2021/12/14 00:21:50;;;;;;;11.57;6.53;;;11.10;79.50;;;;;;5025256;28;20402;-70
2021/12/14 00:24:16;;;;;;;10.57;6.75;;;11.20;79.50;;;;;;5072152;28;20365;-70
2021/12/14 00:26:52;;;;;;;10.65;7.05;;;11.10;79.50;;;;;;5074921;28;20031;-70
2021/12/14 00:29:28;;;;;;;11.18;7.47;;;11.10;79.50;;;;;;5073654;28;20057;-70
2021/12/14 00:31:57;;;;;;;12.48;6.63;;;11.10;79.60;;;;;;5074035;28;20495;-70
2021/12/14 00:34:35;;;;;;;9.55;6.00;;;11.10;79.60;;;;;;5073697;28;20024;-70
2021/12/14 00:37:03;;;;;;;13.20;6.68;;;11.10;79.70;;;;;;5073200;28;20032;-70
2021/12/14 00:39:29;;;;;;;11.85;7.63;;;11.10;79.70;;;;;;5073633;28;20107;-70
2021/12/14 00:41:55;;;;;;;11.18;6.68;;;11.10;79.70;;;;;;5073249;28;20036;-70
2021/12/14 00:44:21;;;;;;;10.30;6.95;;;11.10;79.70;;;;;;5073628;28;20062;-70
2021/12/14 00:46:48;;;;;;;10.75;6.72;;;11.10;79.70;;;;;;5073603;28;20036;-70
2021/12/14 00:49:15;;;;;;;11.60;6.88;;;11.10;79.80;;;;;;5073266;28;20033;-70
2021/12/14 00:51:40;;;;;;;10.32;6.65;;;11.10;79.80;;;;;;5074022;28;20071;-70
2021/12/14 00:54:11;;;;;;;10.60;6.60;;;11.10;79.90;;;;;;5073901;28;20056;-70
2021/12/14 00:56:37;;;;;;;12.47;7.47;;;11.10;79.90;;;;;;5073392;28;20100;-70
2021/12/14 00:59:05;;;;;;;12.10;6.93;;;11.10;79.90;;;;;;5056738;28;20406;-70
2021/12/14 01:01:35;;;;;;;10.48;7.13;;;11.10;80.00;;;;;;5055849;28;20025;-70
2021/12/14 01:04:06;;;;;;;10.73;7.60;;;11.10;80.00;;;;;;5056150;28;20054;-70
2021/12/14 01:06:35;;;;;;;10.63;7.25;;;11.10;80.00;;;;;;5056389;28;20476;-70
2021/12/14 01:09:05;;;;;;;11.50;6.95;;;11.10;80.00;;;;;;5072813;28;20063;-70
2021/12/14 01:11:37;;;;;;;11.23;7.10;;;11.10;80.10;;;;;;5056750;28;20097;-70
2021/12/14 01:14:12;;;;;;;11.10;6.53;;;11.10;80.20;;;;;;5072659;28;20029;-70
2021/12/14 01:16:54;;;;;;;10.23;6.90;;;11.10;80.20;;;;;;5072947;28;20394;-70
2021/12/14 01:19:27;;;;;;;11.85;7.53;;;11.10;80.20;;;;;;5073323;28;20021;-70
2021/12/14 01:22:30;;;;;;;12.77;7.25;;;11.10;80.20;;;;;;5073400;28;20140;-70
2021/12/14 01:25:06;;;;;;;12.45;8.07;;;11.10;80.20;;;;;;5074071;28;20028;-70
2021/12/14 01:27:56;;;;;;;10.98;7.35;;;11.10;80.30;;;;;;5072898;28;20062;-70
2021/12/14 01:30:22;;;;;;;12.40;7.72;;;11.00;80.20;;;;;;5072969;28;20100;-70
2021/12/14 01:32:49;;;;;;;13.13;7.45;;;11.00;80.30;;;;;;5056654;28;20025;-70
2021/12/14 01:35:21;;;;;;;11.23;7.03;;;11.00;80.30;;;;;;5073809;28;20051;-69
2021/12/14 01:38:00;;;;;;;11.88;7.85;;;11.00;80.40;;;;;;5072925;28;20465;-70
2021/12/14 01:40:55;;;;;;;13.50;8.45;;;11.00;80.40;;;;;;5056776;28;20037;-70
2021/12/14 01:43:57;;;;;;;10.93;7.35;;;11.00;80.60;;;;;;5072676;28;20028;-70
2021/12/14 01:46:52;;;;;;;11.00;6.88;;;11.00;80.60;;;;;;5072381;28;20032;-70
2021/12/14 01:49:38;;;;;;;12.38;8.02;;;11.00;80.60;;;;;;5073915;28;20457;-70
2021/12/14 01:52:30;;;;;;;13.15;8.05;;;11.00;80.60;;;;;;5072903;28;20467;-70
2021/12/14 01:55:09;;;;;;;11.82;8.10;;;11.00;80.60;;;;;;5052594;28;20025;-70
2021/12/14 01:57:35;;;;;;;12.18;7.97;;;11.00;80.60;;;;;;5065115;28;20116;-70
2021/12/14 02:00:05;;;;;;;13.38;8.45;;;10.90;80.60;;;;;;5072724;28;20028;-70
2021/12/14 02:02:42;;;;;;;11.10;7.40;;;10.90;80.70;;;;;;5073035;28;20029;-70
2021/12/14 02:05:22;;;;;;;13.65;8.23;;;11.00;80.80;;;;;;5066669;28;20029;-70
2021/12/14 02:07:49;;;;;;;13.73;8.60;;;11.00;80.70;;;;;;5070068;28;20078;-70
2021/12/14 02:10:25;;;;;;;11.82;7.45;;;10.90;80.70;;;;;;5072270;28;20025;-70
2021/12/14 02:12:51;;;;;;;12.65;8.52;;;10.90;80.80;;;;;;5054342;28;20017;-70
2021/12/14 02:15:25;;;;;;;13.52;7.88;;;10.90;80.80;;;;;;5059563;28;20372;-70
2021/12/14 02:17:54;;;;;;;12.57;8.75;;;10.90;80.90;;;;;;5075780;28;20013;-70
2021/12/14 02:20:33;;;;;;;11.73;8.18;;;11.00;80.90;;;;;;5075895;28;20028;-70
2021/12/14 02:23:00;;;;;;;11.75;7.47;;;11.00;80.90;;;;;;5059840;28;20039;-70
2021/12/14 02:25:26;;;;;;;11.43;7.60;;;10.90;80.90;;;;;;5076118;28;20365;-70
2021/12/14 02:27:54;;;;;;;11.98;7.55;;;11.00;80.90;;;;;;5075462;28;20052;-70
2021/12/14 02:30:24;;;;;;;13.27;8.05;;;11.00;80.90;;;;;;5076235;28;20350;-70
2021/12/14 02:32:50;;;;;;;14.63;9.02;;;11.00;80.90;;;;;;5078589;28;20024;-70
2021/12/14 02:35:19;;;;;;;12.40;8.45;;;10.90;80.90;;;;;;5074592;28;20543;-70
2021/12/14 02:37:58;;;;;;;12.40;7.95;;;11.00;80.90;;;;;;5075236;28;20125;-70
2021/12/14 02:40:53;;;;;;;13.27;9.07;;;10.90;80.90;;;;;;5075353;28;20029;-70
2021/12/14 02:43:18;;;;;;;12.80;8.50;;;10.90;81.00;;;;;;5075904;28;20044;-70
2021/12/14 02:45:43;;;;;;;14.30;8.70;;;10.90;81.00;;;;;;5058525;28;20113;-70
2021/12/14 02:48:10;;;;;;;12.77;8.57;;;10.90;81.00;;;;;;5077484;28;20059;-70
2021/12/14 02:50:37;;;;;;;13.48;9.05;;;10.90;81.10;;;;;;5075234;28;20029;-70
2021/12/14 02:53:03;;;;;;;13.25;8.98;;;10.90;81.10;;;;;;5076067;28;20445;-70
2021/12/14 02:55:29;;;;;;;13.50;9.18;;;10.90;81.10;;;;;;5058737;28;20024;-70
2021/12/14 02:58:02;;;;;;;14.65;9.40;;;10.90;81.10;;;;;;5075310;28;20035;-70
2021/12/14 03:00:32;;;;;;;13.07;9.00;;;10.90;81.20;;;;;;5055491;28;20410;-70
2021/12/14 03:03:02;;;;;;;14.32;8.63;;;10.90;81.10;;;;;;5064108;28;20056;-70
2021/12/14 03:05:32;;;;;;;13.07;8.95;;;10.90;81.20;;;;;;5074979;28;20112;-70
2021/12/14 03:08:07;;;;;;;13.30;9.05;;;10.90;81.20;;;;;;5059330;28;20037;-70
2021/12/14 03:10:59;;;;;;;14.32;9.63;;;10.90;81.20;;;;;;5075171;28;20465;-70
2021/12/14 03:13:31;;;;;;;;;;;10.90;81.20;;;;;;5075863;28;20461;-70
2021/12/14 03:15:59;;;;;;;14.07;8.50;;;10.90;81.10;;;;;;5074806;28;19912;-70
2021/12/14 03:18:29;;;;;;;13.65;9.63;;;10.80;81.20;;;;;;5058422;28;20028;-70
2021/12/14 03:21:05;;;;;;;13.43;8.43;;;10.90;81.30;;;;;;5075132;28;20035;-70
2021/12/14 03:23:38;;;;;;;15.25;9.73;;;10.80;81.20;;;;;;5075523;28;20082;-70
2021/12/14 03:26:06;;;;;;;15.55;8.77;;;10.90;81.30;;;;;;5065149;28;20043;-70
2021/12/14 03:28:33;;;;;;;12.00;8.25;;;10.90;81.30;;;;;;5058151;28;20045;-70
2021/12/14 03:31:02;;;;;;;15.25;9.82;;;10.80;81.90;;;;;;5074952;28;20081;-70
2021/12/14 03:33:33;;;;;;;;;;;10.90;81.30;;;;;;5058811;28;20124;-70
2021/12/14 03:36:07;;;;;;;12.77;8.52;;;10.90;81.30;;;;;;5074812;28;20360;-70
2021/12/14 03:38:52;;;;;;;14.05;9.43;;;10.80;81.30;;;;;;5075314;28;20031;-70
2021/12/14 03:41:32;;;;;;;14.85;10.05;;;10.80;81.30;;;;;;5074906;28;20090;-70
2021/12/14 03:44:18;;;;;;;15.38;10.35;;;10.80;81.30;;;;;;5075536;28;20028;-70
2021/12/14 03:46:54;;;;;;;17.65;10.98;;;10.80;81.30;;;;;;5074529;28;20048;-70
2021/12/14 03:49:25;;;;;;;15.35;10.45;;;10.80;81.40;;;;;;5074591;28;20024;-70
2021/12/14 03:51:53;;;;;;;17.48;10.70;;;10.80;81.40;;;;;;5074493;28;20035;-70
2021/12/14 03:54:20;;;;;;;15.10;10.55;;;10.80;81.40;;;;;;5074584;28;20034;-70
2021/12/14 03:56:49;;;;;;;15.10;10.23;;;10.80;81.40;;;;;;5074160;28;20023;-70
2021/12/14 03:59:15;;;;;;;17.17;11.73;;;10.80;81.40;;;;;;5074467;28;20039;-70
2021/12/14 04:01:43;;;;;;;15.70;10.10;;;10.80;81.40;;;;;;5074189;28;20028;-70
2021/12/14 04:04:18;;;;;;;13.95;9.38;;;10.80;81.40;;;;;;5073595;28;20075;-70
2021/12/14 04:06:47;;;;;;;15.02;9.98;;;10.80;81.50;;;;;;5075235;28;20024;-70
2021/12/14 04:09:16;;;;;;;16.75;10.88;;;10.80;81.50;;;;;;5074647;28;20024;-70
2021/12/14 04:11:43;;;;;;;16.67;11.00;;;10.80;81.50;;;;;;5073807;28;20060;-70
2021/12/14 04:14:09;;;;;;;16.98;11.32;;;10.80;81.50;;;;;;5057197;28;20027;-70
2021/12/14 04:16:38;;;;;;;14.68;9.95;;;10.80;81.50;;;;;;5073985;28;20028;-70
2021/12/14 04:19:11;;;;;;;14.32;10.00;;;10.80;81.50;;;;;;5071495;28;20012;-70
2021/12/14 04:21:40;;;;;;;16.23;11.20;;;10.80;81.50;;;;;;5071096;28;20063;-70
2021/12/14 04:24:13;;;;;;;16.83;11.13;;;10.80;81.50;;;;;;5072053;28;20024;-70
2021/12/14 04:26:45;;;;;;;15.68;10.18;;;10.80;81.60;;;;;;5062019;28;20326;-70
2021/12/14 04:29:13;;;;;;;14.27;9.82;;;10.80;81.60;;;;;;5070679;28;20063;-70
2021/12/14 04:31:42;;;;;;;15.63;10.73;;;10.80;81.60;;;;;;5052846;28;20028;-70
2021/12/14 04:34:09;;;;;;;14.70;10.05;;;10.80;81.60;;;;;;5059284;28;20017;-70
2021/12/14 04:36:35;;;;;;;14.75;10.77;;;10.80;81.50;;;;;;5066509;28;20024;-70
2021/12/14 04:53:23;;;;;;;14.75;10.57;;;10.80;81.50;;;;;;5055586;28;20036;-70
2021/12/14 04:55:52;;;;;;;17.40;10.93;;;10.70;81.60;;;;;;5052952;28;20028;-70
2021/12/14 04:58:31;;;;;;;15.23;10.70;;;10.70;81.50;;;;;;5054386;28;20358;-70
2021/12/14 05:00:59;;;;;;;15.43;9.88;;;10.70;81.50;;;;;;5051653;28;20028;-69
2021/12/14 05:03:36;;;;;;;13.18;8.90;;;10.70;81.50;;;;;;5060279;28;20119;-70
2021/12/14 05:06:19;;;;;;;14.82;10.05;;;10.70;81.50;;;;;;5072277;28;20517;-70
2021/12/14 05:11:20;;;;;;;15.43;10.50;;;10.70;81.50;;;;;;5054389;28;20469;-70
2021/12/14 05:13:57;;;;;;;14.10;9.45;;;10.70;81.60;;;;;;5060434;28;20016;-70
2021/12/14 05:16:30;;;;;;;12.88;8.70;;;10.70;81.50;;;;;;5057447;28;20028;-70
2021/12/14 05:19:00;;;;;;;14.40;8.88;;;10.70;81.60;;;;;;5072848;28;20132;-70
2021/12/14 05:21:33;;;;;;;13.70;9.00;;;10.70;81.60;;;;;;5072846;28;20035;-69
2021/12/14 05:24:01;;;;;;;11.65;7.95;;;10.70;81.60;;;;;;5072567;28;20031;-70
2021/12/14 05:26:31;;;;;;;12.48;8.52;;;10.70;81.60;;;;;;5056337;28;20051;-70
2021/12/14 05:28:56;;;;;;;13.23;7.97;;;10.70;81.60;;;;;;5072638;28;20053;-70
2021/12/14 05:31:22;;;;;;;14.00;8.80;;;10.60;81.50;;;;;;5072561;28;20127;-69
2021/12/14 05:33:49;;;;;;;15.30;9.00;;;10.70;81.50;;;;;;5071942;28;20120;-70
2021/12/14 05:36:26;;;;;;;13.13;7.75;;;10.60;81.50;;;;;;5072659;28;20025;-70
2021/12/14 05:39:24;;;;;;;12.10;7.68;;;10.60;81.50;;;;;;5072731;28;20028;-70
2021/12/14 05:44:54;;;;;;;12.43;7.75;;;10.60;81.40;;;;;;5072362;28;20119;-70
2021/12/14 05:47:20;;;;;;;12.90;7.97;;;10.60;81.40;;;;;;5073495;28;20035;-69
2021/12/14 05:50:00;;;;;;;11.68;7.57;;;10.60;81.40;;;;;;5076556;28;20119;-70
2021/12/14 05:52:28;;;;;;;13.43;8.68;;;10.70;81.40;;;;;;5075751;28;20469;-70
2021/12/14 05:54:59;;;;;;;13.05;7.30;;;10.60;81.40;;;;;;5060240;28;20052;-70
2021/12/14 05:57:27;;;;;;;13.48;8.00;;;10.60;81.30;;;;;;5076280;28;20035;-70
2021/12/14 05:59:54;;;;;;;13.73;8.10;;;10.60;81.30;;;;;;5059423;28;20036;-70
2021/12/14 06:02:22;;;;;;;12.90;7.65;;;10.60;81.30;;;;;;5058611;28;20449;-69
2021/12/14 06:04:53;;;;;;;13.68;8.40;;;10.60;81.40;;;;;;5075819;28;20116;-69
2021/12/14 06:07:20;;;;;;;13.10;7.85;;;10.60;81.30;;;;;;5076100;28;20032;-70
2021/12/14 06:09:50;;;;;;;12.35;7.60;;;10.60;81.30;;;;;;5056438;28;20193;-70
2021/12/14 06:12:25;;;;;;;12.85;7.70;;;10.60;81.20;;;;;;5070311;28;20032;-70
2021/12/14 06:14:58;;;;;;;12.20;7.57;;;10.60;81.20;;;;;;5059932;28;20028;-70
2021/12/14 06:17:29;;;;;;;;;;;10.60;81.20;;;;;;5059722;28;20128;-70
2021/12/14 06:20:01;;;;;;;12.73;7.45;;;10.60;81.20;;;;;;5056036;28;20242;-70
2021/12/14 06:22:26;;;;;;;13.43;7.43;;;10.60;81.30;;;;;;5075984;28;20052;-70
2021/12/14 06:24:58;;;;;;;13.57;7.78;;;10.60;81.20;;;;;;5076225;28;20418;-70
2021/12/14 06:27:28;;;;;;;15.65;8.88;;;10.60;81.20;;;;;;5059119;28;20059;-70
2021/12/14 06:29:59;;;;;;;12.90;7.63;;;10.60;81.30;;;;;;5076201;28;20029;-70
2021/12/14 06:32:30;;;;;;;13.50;7.93;;;10.60;81.30;;;;;;5059122;28;20020;-72
2021/12/14 06:35:00;;;;;;;14.48;8.02;;;10.60;81.30;;;;;;5059535;28;20111;-72
2021/12/14 06:40:37;;;;;;;13.30;8.32;;;10.60;81.20;;;;;;5075852;28;20025;-72
2021/12/14 06:43:11;;;;;;;12.98;7.93;;;10.50;81.20;;;;;;5073643;28;20411;-72
2021/12/14 06:45:43;;;;;;;13.93;8.55;;;10.60;81.30;;;;;;5075836;28;20086;-72
2021/12/14 06:48:20;;;;;;;13.88;8.90;;;10.60;81.30;;;;;;5076083;28;20352;-72
2021/12/14 06:50:52;;;;;;;14.93;9.40;;;10.60;81.30;;;;;;5075067;28;20067;-71
2021/12/14 06:53:32;;;;;;;13.13;7.95;;;10.50;81.30;;;;;;5060127;28;20310;-72
2021/12/14 06:56:21;;;;;;;13.63;8.00;;;10.60;81.30;;;;;;5076796;28;20095;-70
2021/12/14 06:59:13;;;;;;;15.13;9.13;;;10.50;81.20;;;;;;5075932;28;20032;-69
2021/12/14 07:02:05;;;;;;;15.85;9.80;;;10.50;81.20;;;;;;5075938;28;20376;-69
2021/12/14 07:04:35;;;;;;;13.60;8.32;;;10.60;81.20;;;;;;5072193;28;20028;-69
2021/12/14 07:07:06;;;;;;;15.63;8.90;;;10.60;81.20;;;;;;5075691;28;20033;-70
2021/12/14 07:09:40;;;;;;;15.27;8.57;;;10.60;81.00;;;;;;5074839;28;20063;-70
2021/12/14 07:12:22;;;;;;;15.95;9.40;;;10.60;81.00;;;;;;5070181;28;20029;-69
2021/12/14 07:14:51;;;;;;;16.50;10.63;;;10.70;80.90;;;;;;5056301;28;20021;-69
2021/12/14 07:17:26;;;;;;;15.85;9.85;;;10.70;81.00;;;;;;5043162;28;20029;-70
2021/12/14 07:20:04;;;;;;;17.40;10.98;;;10.70;81.00;;;;;;5075946;28;20025;-70
2021/12/14 07:22:42;;;;;;;17.23;10.10;;;10.70;81.00;;;;;;5069453;28;20399;-70
2021/12/14 07:25:15;;;;;;;17.27;9.80;;;10.70;81.10;;;;;;5073224;28;20072;-71
2021/12/14 07:27:54;;;;;;;16.58;11.20;;;10.60;81.00;;;;;;5057179;28;20040;-70
2021/12/14 07:30:35;;;;;;;18.83;11.38;;;10.60;81.00;;;;;;5073255;28;20028;-69
2021/12/14 07:33:09;;;;;;;15.68;9.18;;;10.60;81.00;;;;;;5072435;28;20027;-71
2021/12/14 07:35:47;;;;;;;16.70;9.95;;;10.60;81.00;;;;;;5054283;28;20052;-70
2021/12/14 07:38:15;;;;;;;18.63;11.85;;;10.60;81.10;;;;;;5055857;28;20025;-70
2021/12/14 07:40:44;;;;;;;18.35;11.52;;;10.60;81.10;;;;;;5074503;28;20039;-69
2021/12/14 07:43:26;;;;;;;18.15;11.13;;;10.60;81.10;;;;;;5072790;28;20326;-69
2021/12/14 07:45:54;;;;;;;19.08;12.13;;;10.60;81.10;;;;;;5071906;28;20357;-70
2021/12/14 07:48:36;;;;;;;17.00;10.38;;;10.70;81.10;;;;;;5074074;28;20036;-70
2021/12/14 07:51:02;;;;;;;17.27;10.98;;;10.60;81.10;;;;;;5073775;28;20119;-69
2021/12/14 07:53:35;;;;;;;17.60;10.80;;;10.60;81.10;;;;;;5073636;28;20111;-69
2021/12/14 07:56:01;;;;;;;18.33;11.05;;;10.60;81.20;;;;;;5055957;28;20029;-69
2021/12/14 07:58:33;;;;;;;22.42;12.43;;;10.60;81.20;;;;;;5054740;28;20036;-69
2021/12/14 08:00:59;;;;;;;20.10;11.73;;;10.60;81.20;;;;;;5069956;28;20033;-69
2021/12/14 08:03:32;;;;;;;17.85;10.77;;;10.60;81.20;;;;;;5072022;28;20425;-72
2021/12/14 08:05:59;;;;;;;19.98;12.43;;;10.60;81.20;;;;;;5074255;28;20035;-69
2021/12/14 08:08:43;;;;;;;19.90;12.80;;;10.60;81.20;;;;;;5057825;28;20028;-70
2021/12/14 08:14:11;;;;;;;20.17;12.85;;;10.60;81.20;;;;;;5073681;28;20033;-71
2021/12/14 08:16:50;;;;;;;18.45;12.15;;;10.60;81.20;;;;;;5056384;28;20407;-71
2021/12/14 08:19:34;;;;;;;18.17;11.50;;;10.60;81.20;;;;;;5059093;28;20025;-71
2021/12/14 08:22:09;;;;;;;17.83;12.15;;;10.60;81.20;;;;;;5056748;28;20128;-71
2021/12/14 08:24:36;;;;;;;19.48;12.27;;;10.60;81.20;;;;;;5057678;28;20032;-71
2021/12/14 08:27:03;;;;;;;21.67;14.05;;;10.60;81.30;;;;;;5058238;28;20040;-71
2021/12/14 08:29:31;;;;;;;20.42;13.25;;;10.60;81.20;;;;;;5055250;28;20049;-71
2021/12/14 08:32:11;;;;;;;21.27;13.70;;;10.60;81.20;;;;;;5058444;28;20040;-72
2021/12/14 08:34:56;;;;;;;21.00;13.32;;;10.60;81.30;;;;;;5050949;28;20060;-72
2021/12/14 08:37:45;;;;;;;21.50;13.10;;;10.70;81.30;;;;;;5035102;28;20040;-71
2021/12/14 08:40:21;;;;;;;19.42;12.68;;;10.70;81.30;;;;;;5055078;28;20111;-72
2021/12/14 08:43:07;;;;;;;19.45;11.95;;;10.70;81.30;;;;;;5061004;28;20411;-71
2021/12/14 08:45:49;;;;;;;19.25;11.98;;;10.70;81.20;;;;;;5063862;28;20020;-71
2021/12/14 08:48:26;;;;;;;22.10;13.50;;;10.70;81.30;;;;;;5056881;28;20353;-72
2021/12/14 08:51:01;;;;;;;21.77;14.88;;;10.70;81.20;;;;;;5051918;28;20040;-72
2021/12/14 08:53:31;;;;;;;19.98;13.63;;;10.80;81.20;;;;;;5055424;28;20513;-71
2021/12/14 08:56:00;;;;;;;26.10;16.85;;;10.80;81.20;;;;;;5055266;28;20382;-71
2021/12/14 08:58:27;;;;;;;23.70;16.33;;;10.80;81.10;;;;;;5068517;28;20483;-71
2021/12/14 09:00:57;;;;;;;22.25;13.70;;;10.80;81.00;;;;;;5058459;28;20445;-72
2021/12/14 09:03:39;;;;;;;21.80;13.98;;;10.90;81.00;;;;;;5051700;28;20039;-71
2021/12/14 09:06:16;;;;;;;20.67;13.70;;;10.80;80.90;;;;;;5057511;28;20044;-72
2021/12/14 09:08:43;;;;;;;20.63;13.75;;;10.90;80.90;;;;;;5056791;28;20033;-70
2021/12/14 09:11:11;;;;;;;20.67;13.75;;;10.90;80.90;;;;;;5066720;28;20032;-72
2021/12/14 09:13:37;;;;;;;22.95;14.02;;;10.90;80.90;;;;;;5072831;28;20036;-72
2021/12/14 09:16:07;;;;;;;20.92;13.43;;;10.90;80.90;;;;;;5073780;28;20459;-72
2021/12/14 09:18:38;;;;;;;23.65;15.07;;;10.90;80.80;;;;;;5072905;28;20021;-72
2021/12/14 09:21:11;;;;;;;22.60;14.75;;;11.00;80.80;;;;;;5072087;28;20333;-71
2021/12/14 09:23:41;;;;;;;21.48;14.50;;;11.00;80.70;;;;;;5076103;28;20044;-72
2021/12/14 09:26:12;;;;;;;22.05;14.25;;;11.00;80.70;;;;;;5060499;28;20147;-71
2021/12/14 09:28:39;;;;;;;21.05;14.27;;;11.00;80.70;;;;;;5077143;28;20198;-71
2021/12/14 09:31:13;;;;;;;23.88;14.98;;;11.00;80.70;;;;;;5077002;28;20154;-71
2021/12/14 09:33:42;;;;;;;24.35;15.80;;;11.00;80.70;;;;;;5077367;28;20039;-71
2021/12/14 09:36:12;;;;;;;23.15;15.15;;;11.00;80.70;;;;;;5078652;28;20028;-71
2021/12/14 09:38:45;;;;;;;25.05;16.30;;;11.00;81.40;;;;;;5076903;28;20052;-72
2021/12/14 09:41:14;;;;;;;23.67;14.18;;;11.00;80.70;;;;;;5077293;28;20032;-72
2021/12/14 09:43:41;;;;;;;25.17;16.67;;;11.00;80.80;;;;;;5060720;28;20448;-71
2021/12/14 09:46:09;;;;;;;23.58;15.35;;;11.00;80.70;;;;;;5077874;28;20101;-71
2021/12/14 09:48:41;;;;;;;22.67;14.32;;;11.00;80.70;;;;;;5076912;28;20024;-72
2021/12/14 09:51:10;;;;;;;;;;;11.00;80.70;;;;;;5077626;28;20047;-71
2021/12/14 09:53:43;;;;;;;22.38;14.75;;;11.00;80.60;;;;;;5077977;28;19908;-71
2021/12/14 09:56:13;;;;;;;23.67;15.55;;;11.00;80.70;;;;;;5078227;28;20043;-71
2021/12/14 09:58:43;;;;;;;23.60;15.15;;;11.00;80.70;;;;;;5077919;28;20029;-71
2021/12/14 10:01:16;;;;;;;22.63;14.80;;;11.00;80.70;;;;;;5077373;28;20036;-71
2021/12/14 10:03:45;;;;;;;24.17;15.63;;;11.00;80.70;;;;;;5076830;28;20025;-71
2021/12/14 10:06:17;;;;;;;23.08;14.85;;;11.00;80.70;;;;;;5077172;28;20507;-72
2021/12/14 10:08:46;;;;;;;;;;;11.10;80.70;;;;;;5077080;28;20060;-71
2021/12/14 10:11:25;;;;;;;25.90;14.88;;;11.00;80.60;;;;;;5075758;28;19913;-72
2021/12/14 10:13:55;;;;;;;23.27;14.90;;;11.00;80.70;;;;;;5074768;28;20112;-71
2021/12/14 10:16:23;;;;;;;25.42;15.82;;;11.00;80.80;;;;;;5077630;28;20047;-71
2021/12/14 10:18:54;;;;;;;25.20;15.75;;;11.00;80.70;;;;;;5076475;28;20313;-71
2021/12/14 10:21:27;;;;;;;25.00;16.67;;;11.00;80.70;;;;;;5074724;28;20457;-71
2021/12/14 10:23:54;;;;;;;24.00;16.08;;;11.00;80.80;;;;;;5073573;28;20073;-71
2021/12/14 10:26:23;;;;;;;27.52;17.25;;;11.10;80.80;;;;;;5074866;28;20103;-71
2021/12/14 10:28:53;;;;;;;27.33;18.33;;;11.00;80.70;;;;;;5075215;28;20461;-71
2021/12/14 10:31:28;;;;;;;24.08;16.38;;;11.10;80.80;;;;;;5074624;28;20020;-72
2021/12/14 10:33:55;;;;;;;23.33;15.77;;;11.10;80.80;;;;;;5075387;28;20459;-72
2021/12/14 10:36:44;;;;;;;28.27;18.08;;;11.10;80.70;;;;;;5074694;28;20079;-72
2021/12/14 10:39:37;;;;;;;24.45;15.88;;;11.20;80.70;;;;;;5057918;28;20137;-71
2021/12/14 10:44:56;;;;;;;26.80;16.15;;;11.20;80.60;;;;;;5075264;28;20118;-73
2021/12/14 10:47:25;;;;;;;28.42;17.42;;;11.20;80.60;;;;;;5074788;28;20484;-72
2021/12/14 10:49:52;;;;;;;27.00;17.73;;;11.20;80.60;;;;;;5074787;28;20102;-72
2021/12/14 10:52:22;;;;;;;29.38;18.13;;;11.20;80.60;;;;;;5058809;28;20119;-72
2021/12/14 10:54:56;;;;;;;28.38;18.20;;;11.30;80.70;;;;;;5059056;28;20028;-72
2021/12/14 10:57:27;;;;;;;27.55;17.65;;;11.30;80.70;;;;;;5076121;28;20093;-71
2021/12/14 10:59:55;;;;;;;27.25;18.17;;;11.30;80.70;;;;;;5075433;28;20349;-72
2021/12/14 11:02:24;;;;;;;27.45;17.27;;;11.30;80.70;;;;;;5076802;28;20055;-72
2021/12/14 11:04:56;;;;;;;28.00;17.90;;;11.30;80.70;;;;;;5076724;28;20037;-72
2021/12/14 11:07:27;;;;;;;;;;;11.30;80.70;;;;;;5076267;28;20372;-72
2021/12/14 11:10:03;;;;;;;26.77;16.58;;;11.30;80.70;;;;;;5077146;28;19909;-72
2021/12/14 11:12:36;;;;;;;26.42;17.48;;;11.30;81.40;;;;;;5076387;28;20458;-72
2021/12/14 11:15:12;;;;;;;29.80;18.17;;;11.30;80.70;;;;;;5076352;28;20025;-72
2021/12/14 11:20:47;;;;;;;27.63;17.23;;;11.40;80.80;;;;;;5076978;28;20117;-72
2021/12/14 11:23:16;;;;;;;27.27;17.98;;;11.40;80.80;;;;;;5075125;28;20384;-72
2021/12/14 11:25:53;;;;;;;29.02;19.40;;;11.40;80.80;;;;;;5076486;28;20096;-72
2021/12/14 11:28:30;;;;;;;29.60;19.70;;;11.40;80.80;;;;;;5075017;28;20041;-72
2021/12/14 11:31:15;;;;;;;29.42;18.75;;;11.40;80.80;;;;;;5075574;28;20036;-71
2021/12/14 11:33:46;;;;;;;31.52;17.90;;;11.40;80.80;;;;;;5058142;28;20147;-72
2021/12/14 11:36:19;;;;;;;30.30;20.38;;;11.40;80.80;;;;;;5075041;28;20405;-72
2021/12/14 11:39:05;;;;;;;31.08;19.83;;;11.50;80.90;;;;;;5075751;28;20032;-72
2021/12/14 11:41:37;;;;;;;30.13;19.95;;;11.50;80.90;;;;;;5074567;28;20116;-72
2021/12/14 11:44:19;;;;;;;30.88;18.40;;;11.50;80.90;;;;;;5075751;28;20330;-71
2021/12/14 11:47:41;;;;;;;27.15;18.48;;;11.50;81.50;;;;;;5057890;28;20063;-71
2021/12/14 11:50:31;;;;;;;29.63;18.40;;;11.50;80.90;;;;;;5074737;28;20040;-72
2021/12/14 11:53:13;;;;;;;31.05;18.95;;;11.50;80.90;;;;;;5074881;28;20090;-72
2021/12/14 11:55:59;;;;;;;32.95;20.95;;;11.50;80.90;;;;;;5074689;28;20450;-72
2021/12/14 11:58:40;;;;;;;31.33;19.00;;;11.50;81.00;;;;;;5074838;28;20029;-72
2021/12/14 12:01:42;;;;;;;31.08;21.20;;;11.50;81.00;;;;;;5074324;28;20452;-72
2021/12/14 12:04:16;;;;;;;33.40;20.00;;;11.50;81.10;;;;;;5074721;28;20032;-72
2021/12/14 12:09:28;;;;;;;34.28;21.92;;;11.60;81.20;;;;;;5076079;28;20035;-72
2021/12/14 12:12:20;;;;;;;32.53;20.70;;;11.50;81.10;;;;;;5075608;28;20029;-72
2021/12/14 12:15:07;;;;;;;33.50;21.80;;;11.50;81.20;;;;;;5075197;28;20040;-72
2021/12/14 12:17:56;;;;;;;34.53;21.13;;;11.50;81.20;;;;;;5075307;28;20361;-72
2021/12/14 12:20:41;;;;;;;33.42;20.48;;;11.50;81.30;;;;;;5074713;28;20391;-72
2021/12/14 12:23:11;;;;;;;30.73;20.13;;;11.50;81.40;;;;;;5075441;28;20472;-72
2021/12/14 12:25:39;;;;;;;37.72;21.77;;;11.50;81.40;;;;;;5075295;28;20028;-72
2021/12/14 12:28:11;;;;;;;35.83;23.08;;;11.50;81.50;;;;;;5074737;28;20127;-72
2021/12/14 12:30:48;;;;;;;35.72;23.08;;;11.50;81.60;;;;;;5073968;28;20426;-72
2021/12/14 12:33:36;;;;;;;35.63;21.42;;;11.50;81.70;;;;;;5075337;28;20043;-72
2021/12/14 12:36:11;;;;;;;35.80;21.88;;;11.50;81.70;;;;;;5075393;28;20045;-72
2021/12/14 12:38:51;;;;;;;41.03;23.83;;;11.50;81.90;;;;;;5074019;28;20434;-72
2021/12/14 12:41:32;;;;;;;36.70;23.00;;;11.50;81.90;;;;;;5057040;28;20040;-72
2021/12/14 12:44:06;;;;;;;36.15;24.88;;;11.50;82.10;;;;;;5074153;28;20029;-72
2021/12/14 12:46:38;;;;;;;37.05;24.40;;;11.50;82.10;;;;;;5073865;28;20036;-72
2021/12/14 12:49:18;;;;;;;38.20;23.98;;;11.50;82.10;;;;;;5074999;28;20036;-72
2021/12/14 12:51:58;;;;;;;35.27;22.27;;;11.50;82.10;;;;;;5074916;28;20032;-72
2021/12/14 12:54:35;;;;;;;35.85;22.73;;;11.50;82.20;;;;;;5075263;28;20024;-72
2021/12/14 12:57:52;;;;;;;35.40;22.58;;;11.50;82.20;;;;;;5073722;28;20044;-72
2021/12/14 13:00:32;;;;;;;32.80;20.42;;;11.50;82.10;;;;;;5056674;28;20461;-72
2021/12/14 13:03:00;;;;;;;32.65;19.98;;;11.50;82.30;;;;;;5075060;28;20040;-72
2021/12/14 13:05:44;;;;;;;36.75;23.17;;;11.50;82.30;;;;;;5075153;28;20024;-72
2021/12/14 13:08:14;;;;;;;36.53;22.95;;;11.50;82.30;;;;;;5073804;28;20044;-72
2021/12/14 13:10:55;;;;;;;36.22;23.23;;;11.50;82.40;;;;;;5073893;28;20028;-72
2021/12/14 13:13:29;;;;;;;35.25;23.42;;;11.50;82.50;;;;;;5056561;28;20024;-72
2021/12/14 13:16:00;;;;;;;36.28;22.55;;;11.50;82.60;;;;;;5073641;28;20188;-72
2021/12/14 13:18:39;;;;;;;36.03;21.58;;;11.50;82.70;;;;;;5073588;28;20346;-72
2021/12/14 13:21:29;;;;;;;36.55;23.23;;;11.50;82.80;;;;;;5056791;28;20032;-72
2021/12/14 13:23:58;;;;;;;35.50;22.73;;;11.50;82.90;;;;;;5074200;28;20070;-72
2021/12/14 13:26:30;;;;;;;43.22;25.17;;;11.50;83.00;;;;;;5074562;28;20044;-72
2021/12/14 13:29:10;;;;;;;35.58;22.70;;;11.50;83.10;;;;;;5074293;28;20049;-72
2021/12/14 13:31:42;;;;;;;34.37;22.33;;;11.50;83.20;;;;;;5072120;28;20110;-72
2021/12/14 13:34:15;;;;;;;35.35;22.45;;;11.50;83.30;;;;;;5073831;28;20754;-73
2021/12/14 13:36:42;;;;;;;36.70;23.17;;;11.50;83.30;;;;;;5074206;28;20137;-72
2021/12/14 13:39:10;;;;;;;39.33;23.92;;;11.50;83.40;;;;;;5073491;28;20394;-72
2021/12/14 13:42:04;;;;;;;39.13;24.38;;;11.50;83.50;;;;;;5055578;28;20028;-73
2021/12/14 13:44:39;;;;;;;38.22;22.50;;;11.50;83.60;;;;;;5072976;28;20029;-72
2021/12/14 13:47:08;;;;;;;36.85;24.10;;;11.50;83.70;;;;;;5073155;28;20334;-72